»·PEaware :: AAL458 KSLC-KSEA

AAL458 :: KSLC-KSEA

FLIGHT INFORMATION

Flight Status: Arrived
Operator:
American Airlines
More flights by this operator :: More flights under this callsign
Pilot: Paul S. (10596)
Aircraft: BOEING 737-800
(B738)
More flights by this aircraft type
Origin: KSLC Salt Lake City Intl
United States
Destination: KSEA Seattle-Tacoma Intl
United States
More flights between these airports :: More routes between these airports
Route: +TWF4 TWF PDT CHINS2
File this flight plan on PilotEdge
Remarks:
Altitude:
(Current/Filed)
34,000ft
Speed:
(Current/Filed)
450kts
Departed: 08-Dec-17 12:13 PM
Arrived: 08-Dec-17 02:00 PM
Distance/Time
Traveled:
597nm/1:47
Distance/Time
To Go:
Arrived

Flight Plot

Page will automatically refresh every two minutes.

Flight plan parsing failed; only flown route is shown


Map Options




Map Legend


Flown Route
Filed Route
Departure Airport
Arrival Airport
Navaid (VOR, NDB)
Fix

Horizontal Profiles

Position Reports

Time Latitude Longitude Heading Altitude Ground
Speed
08-Dec-17 11:54 40.788108 -111.977808 266 4234ft 0kts
08-Dec-17 11:54 40.788108 -111.977808 266 4234ft 0kts
08-Dec-17 11:55 40.788108 -111.977809 266 4234ft 0kts
08-Dec-17 11:56 40.788108 -111.977810 266 4234ft 0kts
08-Dec-17 11:57 40.788108 -111.977812 266 4234ft 0kts
08-Dec-17 11:58 40.788108 -111.977814 266 4234ft 0kts
08-Dec-17 11:59 40.788108 -111.977815 266 4234ft 0kts
08-Dec-17 12:00 40.788108 -111.977817 266 4234ft 0kts
08-Dec-17 12:01 40.788108 -111.977819 266 4234ft 0kts
08-Dec-17 12:02 40.788107 -111.977820 266 4234ft 0kts
08-Dec-17 12:03 40.788107 -111.977822 266 4234ft 0kts
08-Dec-17 12:04 40.788107 -111.977824 266 4234ft 0kts
08-Dec-17 12:05 40.788107 -111.977825 266 4234ft 0kts
08-Dec-17 12:06 40.788107 -111.977827 266 4234ft 0kts
08-Dec-17 12:07 40.788107 -111.977828 266 4234ft 0kts
08-Dec-17 12:08 40.788127 -111.977430 266 4234ft 2kts
08-Dec-17 12:09 40.787877 -111.976485 328 4234ft 2kts
08-Dec-17 12:10 40.787590 -111.976362 355 4235ft 0kts
08-Dec-17 12:11 40.787265 -111.975420 215 4234ft 0kts
08-Dec-17 12:12 40.783489 -111.976179 168 4234ft 12kts
08-Dec-17 12:13 40.781113 -111.975928 176 4234ft 20kts
08-Dec-17 12:14 40.776708 -111.975430 177 4234ft 20kts
08-Dec-17 12:15 40.774517 -111.974348 82 4234ft 0kts
08-Dec-17 12:16 40.774517 -111.974346 82 4234ft 0kts
08-Dec-17 12:17 40.774523 -111.974295 82 4234ft 4kts
08-Dec-17 12:18 40.793894 -111.975216 353 4397ft 162kts
08-Dec-17 12:19 40.835124 -112.005736 312 6463ft 226kts
08-Dec-17 12:20 40.881309 -112.072799 312 9239ft 253kts
08-Dec-17 12:21 40.928479 -112.141748 316 12363ft 257kts
08-Dec-17 12:22 40.977642 -112.213570 316 15144ft 268kts
08-Dec-17 12:23 41.025184 -112.292335 291 15753ft 285kts
08-Dec-17 12:24 41.004648 -112.395203 275 15670ft 291kts
08-Dec-17 12:25 41.054915 -112.452443 10 17213ft 266kts
08-Dec-17 12:26 41.124947 -112.470107 324 19563ft 284kts
08-Dec-17 12:27 41.190915 -112.531278 324 21804ft 294kts
08-Dec-17 12:28 41.256998 -112.598489 324 23851ft 305kts
08-Dec-17 12:29 41.319067 -112.679201 314 25534ft 317kts
08-Dec-17 12:30 41.381667 -112.771256 314 26778ft 342kts
08-Dec-17 12:31 41.444226 -112.865518 313 28749ft 339kts
08-Dec-17 12:32 41.506256 -112.960603 312 30460ft 338kts
08-Dec-17 12:33 41.567873 -113.055435 312 31874ft 342kts
08-Dec-17 12:34 41.632375 -113.154926 312 32556ft 370kts
08-Dec-17 12:35 41.703301 -113.263782 311 32831ft 405kts
08-Dec-17 12:36 41.779949 -113.382340 311 33105ft 434kts
08-Dec-17 12:37 41.859222 -113.505602 311 34360ft 434kts
08-Dec-17 12:38 41.938257 -113.629074 311 34748ft 437kts
08-Dec-17 12:39 42.016644 -113.752048 310 34751ft 434kts
08-Dec-17 12:40 42.095193 -113.875800 310 34751ft 434kts
08-Dec-17 12:41 42.173315 -113.999395 310 34752ft 433kts
08-Dec-17 12:42 42.251243 -114.123202 310 34754ft 433kts
08-Dec-17 12:43 42.329352 -114.247314 310 34756ft 433kts
08-Dec-17 12:44 42.406958 -114.371903 310 34758ft 433kts
08-Dec-17 12:45 42.485046 -114.496366 313 34760ft 433kts
08-Dec-17 12:46 42.572097 -114.608825 316 34764ft 433kts
08-Dec-17 12:47 42.659592 -114.720781 316 34766ft 433kts
08-Dec-17 12:48 42.747199 -114.833649 316 34768ft 433kts
08-Dec-17 12:49 42.834529 -114.946100 316 34771ft 433kts
08-Dec-17 12:50 42.921982 -115.059570 315 34775ft 432kts
08-Dec-17 12:51 43.008907 -115.172967 315 34782ft 432kts
08-Dec-17 12:52 43.095583 -115.286559 315 34788ft 433kts
08-Dec-17 12:53 43.182422 -115.400855 315 34804ft 433kts
08-Dec-17 12:54 43.269425 -115.515848 315 34809ft 433kts
08-Dec-17 12:55 43.355940 -115.630682 314 34811ft 433kts
08-Dec-17 12:56 43.442545 -115.746116 314 34813ft 433kts
08-Dec-17 12:57 43.528758 -115.861516 314 34815ft 433kts
08-Dec-17 12:58 43.614901 -115.977304 314 34817ft 433kts
08-Dec-17 12:59 43.701223 -116.093829 313 34820ft 433kts
08-Dec-17 13:00 43.787054 -116.210181 313 34821ft 433kts
08-Dec-17 13:01 43.872997 -116.327183 313 34824ft 432kts
08-Dec-17 13:02 43.958680 -116.444330 313 34824ft 432kts
08-Dec-17 13:03 44.044111 -116.561632 313 34842ft 431kts
08-Dec-17 13:04 44.129284 -116.679084 313 34842ft 431kts
08-Dec-17 13:05 44.213962 -116.796356 313 34854ft 429kts
08-Dec-17 13:06 44.298751 -116.914287 313 34852ft 430kts
08-Dec-17 13:07 44.382994 -117.031966 313 34811ft 429kts
08-Dec-17 13:08 44.467218 -117.150125 313 34816ft 429kts
08-Dec-17 13:09 44.551186 -117.268439 313 34776ft 428kts
08-Dec-17 13:10 44.635340 -117.387531 313 34776ft 428kts
08-Dec-17 13:11 44.719231 -117.506769 313 34760ft 428kts
08-Dec-17 13:12 44.802692 -117.625918 313 34759ft 428kts
08-Dec-17 13:13 44.885887 -117.745209 313 34760ft 427kts
08-Dec-17 13:14 44.969238 -117.865250 313 34760ft 427kts
08-Dec-17 13:15 45.052053 -117.985048 313 34756ft 426kts
08-Dec-17 13:16 45.134931 -118.105464 313 34757ft 426kts
08-Dec-17 13:17 45.217293 -118.225665 312 34732ft 425kts
08-Dec-17 13:18 45.299453 -118.346101 312 34741ft 425kts
08-Dec-17 13:19 45.381694 -118.467196 312 34693ft 424kts
08-Dec-17 13:20 45.463431 -118.588088 312 34675ft 424kts
08-Dec-17 13:21 45.545540 -118.709541 312 34722ft 424kts
08-Dec-17 13:22 45.626895 -118.831247 312 34730ft 425kts
08-Dec-17 13:23 45.707996 -118.953698 310 34778ft 424kts
08-Dec-17 13:24 45.784222 -119.082923 309 34810ft 423kts
08-Dec-17 13:25 45.859840 -119.211931 309 34817ft 423kts
08-Dec-17 13:26 45.935618 -119.341052 309 34845ft 423kts
08-Dec-17 13:27 46.011876 -119.470348 309 34854ft 423kts
08-Dec-17 13:28 46.086972 -119.599227 309 34522ft 412kts
08-Dec-17 13:30 46.161099 -119.727542 309 31458ft 427kts
08-Dec-17 13:31 46.238374 -119.861476 308 28008ft 439kts
08-Dec-17 13:32 46.316240 -119.997317 307 25195ft 430kts
08-Dec-17 13:33 46.388054 -120.122699 307 24857ft 380kts
08-Dec-17 13:34 46.454914 -120.240041 307 24845ft 378kts
08-Dec-17 13:35 46.521036 -120.357195 307 24837ft 368kts
08-Dec-17 13:36 46.585092 -120.473406 303 24839ft 367kts
08-Dec-17 13:37 46.643188 -120.596078 303 24818ft 368kts
08-Dec-17 13:38 46.701327 -120.718372 303 24820ft 369kts
08-Dec-17 13:39 46.759789 -120.842253 302 24803ft 369kts
08-Dec-17 13:40 46.818026 -120.965958 302 24764ft 371kts
08-Dec-17 13:41 46.876366 -121.090423 302 24752ft 370kts
08-Dec-17 13:42 46.934129 -121.213027 302 24422ft 357kts
08-Dec-17 13:43 46.989436 -121.331917 302 22749ft 354kts
08-Dec-17 13:44 47.046264 -121.454965 301 20154ft 371kts
08-Dec-17 13:45 47.104940 -121.581806 301 17558ft 379kts
08-Dec-17 13:46 47.161703 -121.705677 303 16661ft 341kts
08-Dec-17 13:47 47.212318 -121.816453 303 16602ft 323kts
08-Dec-17 13:48 47.262888 -121.926939 303 16589ft 327kts
08-Dec-17 13:49 47.313453 -122.038712 303 16313ft 325kts
08-Dec-17 13:50 47.363391 -122.148577 309 15016ft 320kts
08-Dec-17 13:51 47.445032 -122.185188 358 13691ft 314kts
08-Dec-17 13:52 47.531651 -122.185104 0 12283ft 314kts
08-Dec-17 13:53 47.620300 -122.184496 0 10273ft 316kts
08-Dec-17 13:54 47.707310 -122.183401 0 7975ft 310kts
08-Dec-17 13:55 47.792785 -122.182678 0 5477ft 304kts
08-Dec-17 13:56 47.857364 -122.224181 277 4590ft 256kts
08-Dec-17 13:57 47.831710 -122.305607 210 4545ft 209kts
08-Dec-17 13:57 47.784362 -122.312239 176 4599ft 197kts
08-Dec-17 13:59 47.729212 -122.306390 178 4566ft 161kts
08-Dec-17 14:00 47.684326 -122.305912 180 4586ft 161kts
08-Dec-17 14:01 47.639223 -122.306193 180 4012ft 161kts
08-Dec-17 14:02 47.595160 -122.306571 180 3137ft 156kts
08-Dec-17 14:02 47.559268 -122.306886 180 2439ft 154kts
08-Dec-17 14:04 47.509635 -122.307323 180 1474ft 151kts
08-Dec-17 14:05 47.467839 -122.307690 180 662ft 149kts
08-Dec-17 14:05 47.440287 -122.307934 180 441ft 15kts
08-Dec-17 14:06 47.441093 -122.301941 45 441ft 20kts

Navigation Log

Ident Type
Flight plan parsing failed, navigation log unavailable